createdAt,value
2023-02-19T00:00:59.753Z,100638.63
2023-02-19T00:04:06.180Z,100647.16
2023-02-19T00:07:10.768Z,100653.66
2023-02-19T00:10:13.758Z,100617.81
2023-02-19T00:13:16.857Z,100643.72
2023-02-19T00:16:25.056Z,100657.97
2023-02-19T00:19:33.031Z,100656.66
2023-02-19T00:22:38.928Z,100617.53
2023-02-19T00:25:45.383Z,100653.38
2023-02-19T00:28:55.746Z,100656.34
2023-02-19T00:31:58.951Z,100651.09
2023-02-19T00:35:05.026Z,100630.28
2023-02-19T00:38:08.231Z,100601.69
2023-02-19T00:41:21.777Z,100631.81
2023-02-19T00:44:25.186Z,100626.91
2023-02-19T00:47:27.583Z,100652.25
2023-02-19T00:50:30.925Z,100652.41
2023-02-19T00:53:33.490Z,100648.97
2023-02-19T00:56:36.298Z,100648.53
2023-02-19T00:59:39.273Z,100665.34
2023-02-19T01:02:42.670Z,100669.47
2023-02-19T01:05:45.224Z,100652.81
2023-02-19T01:08:47.834Z,100635.28
2023-02-19T01:11:52.344Z,100625.63
2023-02-19T01:14:55.537Z,100627.53
2023-02-19T01:17:58.356Z,100657.66
2023-02-19T01:21:14.880Z,100643.22
2023-02-19T01:24:17.944Z,100638.00
2023-02-19T01:27:20.612Z,100633.03
2023-02-19T01:30:26.015Z,100652.94
2023-02-19T01:33:34.050Z,100605.16
2023-02-19T01:36:39.317Z,100632.81
2023-02-19T01:39:42.705Z,100644.19
2023-02-19T01:42:45.605Z,100664.06
2023-02-19T01:45:57.193Z,100655.72
2023-02-19T01:49:21.492Z,100657.50
2023-02-19T01:52:32.229Z,100639.84
2023-02-19T01:55:35.723Z,100645.47
2023-02-19T01:58:39.421Z,100638.41
2023-02-19T02:01:42.687Z,100651.78
2023-02-19T02:08:34.636Z,100638.63
2023-02-19T02:11:58.489Z,100585.59
2023-02-19T02:15:01.890Z,100611.94
2023-02-19T02:18:22.811Z,100643.69
2023-02-19T02:22:04.597Z,100643.53
2023-02-19T02:25:16.477Z,100612.72
2023-02-19T02:28:49.802Z,100599.03
2023-02-19T02:32:32.010Z,100611.16
2023-02-19T02:35:43.181Z,100627.28
2023-02-19T02:38:47.578Z,100608.25
2023-02-19T02:42:15.145Z,100600.38
2023-02-19T02:45:35.427Z,100619.41
2023-02-19T02:48:46.862Z,100631.88
2023-02-19T02:51:54.989Z,100627.13
2023-02-19T02:55:03.938Z,100633.00
2023-02-19T02:58:09.158Z,100612.19
2023-02-19T03:01:38.848Z,100603.66
2023-02-19T03:05:11.519Z,100624.69
2023-02-19T03:08:48.527Z,100646.00
2023-02-19T03:12:13.319Z,100619.56
2023-02-19T03:15:41.240Z,100615.78
2023-02-19T03:19:09.389Z,100601.41
2023-02-19T03:22:22.176Z,100624.72
2023-02-19T03:25:57.284Z,100639.56
2023-02-19T03:29:23.669Z,100611.72
2023-02-19T03:32:32.386Z,100632.28
2023-02-19T03:35:47.755Z,100649.16
2023-02-19T03:39:03.776Z,100643.69
2023-02-19T03:42:26.543Z,100632.22
2023-02-19T03:46:07.869Z,100655.84
2023-02-19T03:49:30.910Z,100634.56
2023-02-19T03:53:21.788Z,100621.28
2023-02-19T03:57:00.986Z,100646.34
2023-02-19T04:00:11.283Z,100605.75
2023-02-19T04:03:39.377Z,100636.69
2023-02-19T04:06:45.265Z,100630.78
2023-02-19T04:09:58.450Z,100630.91
2023-02-19T04:13:12.441Z,100622.59
2023-02-19T04:16:28.495Z,100606.38
2023-02-19T04:19:40.096Z,100638.28
2023-02-19T04:22:46.633Z,100620.81
2023-02-19T04:25:53.686Z,100633.25
2023-02-19T04:28:57.143Z,100640.75
2023-02-19T04:32:04.897Z,100621.97
2023-02-19T04:35:16.236Z,100614.78
2023-02-19T04:38:19.406Z,100640.50
2023-02-19T04:41:25.659Z,100626.38
2023-02-19T04:44:28.829Z,100609.38
2023-02-19T04:47:34.784Z,100593.00
2023-02-19T04:50:46.639Z,100630.31
2023-02-19T04:53:53.406Z,100645.56
2023-02-19T04:56:58.014Z,100642.94
2023-02-19T05:00:00.927Z,100601.84
2023-02-19T05:03:03.852Z,100628.53
2023-02-19T05:06:09.282Z,100630.59
2023-02-19T05:09:11.966Z,100628.66
2023-02-19T05:12:14.620Z,100641.78
2023-02-19T05:15:18.418Z,100641.50
2023-02-19T05:18:20.752Z,100607.94
2023-02-19T05:21:24.138Z,100643.97
2023-02-19T05:24:28.151Z,100645.59
2023-02-19T05:27:31.733Z,100650.34
2023-02-19T05:30:36.063Z,100645.25
2023-02-19T05:33:39.521Z,100638.56
2023-02-19T05:36:42.173Z,100614.31
2023-02-19T05:39:45.336Z,100611.72
2023-02-19T05:42:48.612Z,100610.03
2023-02-19T05:46:00.206Z,100630.66
2023-02-19T05:49:03.591Z,100612.50
2023-02-19T05:52:06.438Z,100637.06
2023-02-19T05:55:12.999Z,100648.91
2023-02-19T05:58:18.040Z,100622.19
2023-02-19T06:01:28.596Z,100645.44
2023-02-19T06:04:31.358Z,100655.59
2023-02-19T06:07:35.447Z,100652.31
2023-02-19T06:10:41.597Z,100661.78
2023-02-19T06:13:45.562Z,100658.94
2023-02-19T06:16:48.152Z,100657.97
2023-02-19T06:19:50.897Z,100647.97
2023-02-19T06:22:53.772Z,100626.50
2023-02-19T06:26:09.676Z,100624.72
2023-02-19T06:29:12.294Z,100628.66
2023-02-19T06:32:17.086Z,100610.16
2023-02-19T06:35:19.830Z,100638.75
2023-02-19T06:38:22.780Z,100597.13
2023-02-19T06:41:26.368Z,100590.00
2023-02-19T06:44:29.221Z,100624.69
2023-02-19T06:47:33.017Z,100598.47
2023-02-19T06:50:35.488Z,100619.75
2023-02-19T06:53:38.128Z,100613.34
2023-02-19T06:56:42.149Z,100607.88
2023-02-19T06:59:45.111Z,100610.19
2023-02-19T07:02:47.459Z,100624.63
2023-02-19T07:05:50.040Z,100624.41
2023-02-19T07:08:53.312Z,100633.28
2023-02-19T07:11:55.903Z,100635.63
2023-02-19T07:14:59.972Z,100620.63
2023-02-19T07:18:02.933Z,100628.13
2023-02-19T07:21:12.542Z,100654.97
2023-02-19T07:24:15.418Z,100618.38
2023-02-19T07:27:18.030Z,100621.97
2023-02-19T07:30:26.155Z,100642.41
2023-02-19T07:33:32.021Z,100633.09
2023-02-19T07:36:34.858Z,100633.13
2023-02-19T07:39:37.666Z,100593.50
2023-02-19T07:42:40.771Z,100609.53
2023-02-19T07:45:45.928Z,100602.56
2023-02-19T07:48:52.117Z,100596.41
2023-02-19T07:51:56.724Z,100591.44
2023-02-19T07:55:05.004Z,100651.00
2023-02-19T07:58:07.988Z,100641.66
2023-02-19T08:01:40.850Z,100642.28
2023-02-19T08:04:43.702Z,100630.97
2023-02-19T08:07:46.264Z,100659.69
2023-02-19T08:11:08.851Z,100644.84
2023-02-19T08:14:12.057Z,100650.09
2023-02-19T08:17:15.304Z,100643.97
2023-02-19T08:20:21.593Z,100635.50
2023-02-19T08:23:28.079Z,100665.22
2023-02-19T08:26:31.730Z,100667.31
2023-02-19T08:29:35.422Z,100680.00
2023-02-19T08:32:38.927Z,100666.91
2023-02-19T08:35:47.213Z,100657.25
2023-02-19T08:38:53.545Z,100652.25
2023-02-19T08:42:02.894Z,100627.25
2023-02-19T08:45:10.557Z,100619.78
2023-02-19T08:48:14.138Z,100637.25
2023-02-19T08:51:17.393Z,100632.00
2023-02-19T08:54:24.180Z,100607.28
2023-02-19T08:57:33.197Z,100654.28
2023-02-19T09:00:42.202Z,100635.31
2023-02-19T09:03:45.476Z,100636.91
2023-02-19T09:06:51.312Z,100625.31
2023-02-19T09:09:55.627Z,100625.28
2023-02-19T09:13:01.249Z,100625.78
2023-02-19T09:16:06.336Z,100594.00
2023-02-19T09:19:09.736Z,100638.88
2023-02-19T09:22:12.516Z,100606.63
2023-02-19T09:25:15.908Z,100623.47
2023-02-19T09:28:23.792Z,100607.72
2023-02-19T09:31:27.374Z,100607.72
2023-02-19T09:34:30.361Z,100616.72
2023-02-19T09:37:35.773Z,100567.63
2023-02-19T09:40:42.442Z,100607.28
2023-02-19T09:43:45.640Z,100622.50
2023-02-19T09:46:52.166Z,100581.91
2023-02-19T09:50:04.243Z,100569.63
2023-02-19T09:53:17.956Z,100590.25
2023-02-19T09:56:20.830Z,100600.22
2023-02-19T09:59:30.872Z,100582.03
2023-02-19T10:02:33.888Z,100590.38
2023-02-19T10:05:40.205Z,100584.63
2023-02-19T10:08:49.252Z,100562.06
2023-02-19T10:11:54.109Z,100551.44
2023-02-19T10:15:04.777Z,100569.38
2023-02-19T10:18:10.084Z,100529.13
2023-02-19T10:21:25.812Z,100526.09
2023-02-19T10:24:30.273Z,100560.09
2023-02-19T10:27:33.076Z,100541.69
2023-02-19T10:30:37.943Z,100545.34
2023-02-19T10:33:52.586Z,100520.69
2023-02-19T10:36:55.299Z,100517.09
2023-02-19T10:39:57.577Z,100524.97
2023-02-19T10:43:05.417Z,100521.19
2023-02-19T10:46:15.393Z,100505.94
2023-02-19T10:49:30.586Z,100524.78
2023-02-19T10:52:36.491Z,100484.31
2023-02-19T10:55:41.179Z,100494.19
2023-02-19T10:58:45.260Z,100490.50
2023-02-19T11:01:58.947Z,100495.16
2023-02-19T11:05:15.473Z,100489.53
2023-02-19T11:08:28.376Z,100430.06
2023-02-19T11:11:40.448Z,100431.38
2023-02-19T11:14:45.721Z,100446.22
2023-02-19T11:18:02.287Z,100442.81
2023-02-19T11:21:07.582Z,100431.16
2023-02-19T11:24:31.124Z,100441.63
2023-02-19T11:27:34.566Z,100427.34
2023-02-19T11:30:39.699Z,100438.06
2023-02-19T11:34:05.288Z,100407.69
2023-02-19T11:37:28.480Z,100416.88
2023-02-19T11:40:46.088Z,100426.34
2023-02-19T11:44:14.817Z,100392.28
2023-02-19T11:47:29.906Z,100392.69
2023-02-19T11:50:51.867Z,100393.38
2023-02-19T11:54:24.502Z,100385.91
2023-02-19T11:57:41.099Z,100393.47
2023-02-19T12:01:05.171Z,100386.84
2023-02-19T12:04:32.149Z,100387.53
2023-02-19T12:08:10.461Z,100375.59
2023-02-19T12:11:54.021Z,100379.06
2023-02-19T12:15:02.860Z,100376.22
2023-02-19T12:18:38.344Z,100373.16
2023-02-19T12:22:18.729Z,100382.50
2023-02-19T12:25:33.438Z,100375.00
2023-02-19T12:29:01.082Z,100342.56
2023-02-19T12:32:39.419Z,100377.91
2023-02-19T12:36:16.777Z,100373.88
2023-02-19T12:39:38.069Z,100384.44
2023-02-19T12:43:02.883Z,100390.09
2023-02-19T12:46:21.784Z,100378.09
2023-02-19T12:49:31.604Z,100389.47
2023-02-19T12:52:46.879Z,100428.75
2023-02-19T12:55:53.952Z,100453.50
2023-02-19T12:59:11.408Z,100447.53
2023-02-19T13:02:19.139Z,100453.53
2023-02-19T13:05:38.259Z,100453.41
2023-02-19T13:09:03.427Z,100417.38
2023-02-19T13:12:26.070Z,100375.16
2023-02-19T13:15:44.189Z,100391.16
2023-02-19T13:18:58.130Z,100360.97
2023-02-19T13:23:05.108Z,100390.06
2023-02-19T13:26:19.615Z,100401.69
2023-02-19T13:29:57.659Z,100381.66
2023-02-19T13:33:12.151Z,100391.19
2023-02-19T13:36:26.529Z,100393.66
2023-02-19T13:39:31.124Z,100380.22
2023-02-19T13:42:39.020Z,100371.41
2023-02-19T13:45:44.856Z,100411.16
2023-02-19T13:48:47.428Z,100394.41
2023-02-19T13:51:57.015Z,100413.09
2023-02-19T13:55:40.189Z,100432.50
2023-02-19T13:58:56.914Z,100468.28
2023-02-19T14:02:01.344Z,100466.66
2023-02-19T14:05:10.747Z,100479.38
2023-02-19T14:08:13.237Z,100473.47
2023-02-19T14:11:48.521Z,100470.63
2023-02-19T14:14:53.561Z,100488.13
2023-02-19T14:17:57.185Z,100495.81
2023-02-19T14:21:14.643Z,100511.31
2023-02-19T14:24:18.287Z,100503.31
2023-02-19T14:27:23.134Z,100521.94
2023-02-19T14:30:28.596Z,100520.41
2023-02-19T14:33:38.147Z,100504.75
2023-02-19T14:36:50.555Z,100523.59
2023-02-19T14:39:57.232Z,100545.03
2023-02-19T14:43:01.250Z,100543.19
2023-02-19T14:46:14.912Z,100553.56
2023-02-19T14:49:33.934Z,100541.59
2023-02-19T14:52:41.629Z,100539.72
2023-02-19T14:55:48.816Z,100555.38
2023-02-19T14:59:22.554Z,100549.53
2023-02-19T15:02:27.782Z,100550.84
2023-02-19T15:05:33.448Z,100557.22
2023-02-19T15:08:48.605Z,100557.44
2023-02-19T15:11:51.950Z,100530.94
2023-02-19T15:14:59.995Z,100557.63
2023-02-19T15:18:04.646Z,100554.34
2023-02-19T15:21:08.751Z,100587.88
2023-02-19T15:24:14.924Z,100578.69
2023-02-19T15:27:24.641Z,100552.72
2023-02-19T15:30:31.517Z,100554.88
2023-02-19T15:33:35.393Z,100579.22
2023-02-19T15:36:45.452Z,100564.00
2023-02-19T15:39:56.167Z,100529.16
2023-02-19T15:43:02.774Z,100574.81
2023-02-19T15:46:15.989Z,100521.00
2023-02-19T15:49:33.946Z,100515.78
2023-02-19T15:52:59.414Z,100564.84
2023-02-19T15:56:15.414Z,100573.53
2023-02-19T15:59:29.893Z,100569.75
2023-02-19T16:02:36.024Z,100566.50
2023-02-19T16:05:40.577Z,100586.94
2023-02-19T16:08:44.526Z,100582.53
2023-02-19T16:11:54.033Z,100604.47
2023-02-19T16:15:14.576Z,100568.94
2023-02-19T16:18:17.856Z,100606.78
2023-02-19T16:21:28.184Z,100594.03
2023-02-19T16:24:37.405Z,100618.41
2023-02-19T16:27:43.986Z,100592.88
2023-02-19T16:30:47.363Z,100587.78
2023-02-19T16:33:52.075Z,100627.91
2023-02-19T16:36:55.031Z,100622.69
2023-02-19T16:40:15.088Z,100641.34
2023-02-19T16:43:37.944Z,100642.00
2023-02-19T16:46:44.167Z,100651.31
2023-02-19T16:49:46.862Z,100620.13
2023-02-19T16:52:58.914Z,100623.56
2023-02-19T16:56:01.682Z,100616.47
2023-02-19T16:59:05.282Z,100623.66
2023-02-19T17:02:15.963Z,100636.59
2023-02-19T17:05:22.264Z,100640.69
2023-02-19T17:08:38.250Z,100645.53
2023-02-19T17:11:44.811Z,100675.31
2023-02-19T17:14:47.995Z,100651.59
2023-02-19T17:17:54.285Z,100665.38
2023-02-19T17:21:21.341Z,100669.91
2023-02-19T17:24:28.173Z,100629.88
2023-02-19T17:27:33.025Z,100659.16
2023-02-19T17:30:37.787Z,100624.06
2023-02-19T17:33:53.671Z,100675.38
2023-02-19T17:36:56.845Z,100691.16
2023-02-19T17:39:59.708Z,100667.28
2023-02-19T17:43:05.405Z,100661.38
2023-02-19T17:46:09.988Z,100704.47
2023-02-19T17:49:13.326Z,100698.19
2023-02-19T17:52:21.790Z,100700.94
2023-02-19T17:55:26.050Z,100694.19
2023-02-19T17:58:31.103Z,100705.03
2023-02-19T18:01:34.438Z,100718.03
2023-02-19T18:04:40.145Z,100696.22
2023-02-19T18:07:46.595Z,100719.50
2023-02-19T18:10:51.537Z,100739.47
2023-02-19T18:13:54.830Z,100733.56
2023-02-19T18:16:57.426Z,100747.41
2023-02-19T18:20:05.161Z,100743.63
2023-02-19T18:23:09.735Z,100760.84
2023-02-19T18:26:14.484Z,100752.28
2023-02-19T18:29:18.686Z,100778.16
2023-02-19T18:32:24.694Z,100793.22
2023-02-19T18:35:28.074Z,100795.13
2023-02-19T18:38:34.465Z,100760.28
2023-02-19T18:41:37.839Z,100831.00
2023-02-19T18:44:42.116Z,100817.56
2023-02-19T18:47:53.603Z,100833.91
2023-02-19T18:51:07.084Z,100815.47
2023-02-19T18:54:13.266Z,100855.81
2023-02-19T18:57:16.746Z,100851.34
2023-02-19T19:00:25.872Z,100828.28
2023-02-19T19:03:38.561Z,100855.53
2023-02-19T19:06:41.500Z,100861.22
2023-02-19T19:09:44.398Z,100865.84
2023-02-19T19:12:47.342Z,100851.13
2023-02-19T19:15:53.355Z,100873.19
2023-02-19T19:18:57.632Z,100858.97
2023-02-19T19:22:06.795Z,100852.16
2023-02-19T19:25:15.700Z,100837.31
2023-02-19T19:28:19.847Z,100853.81
2023-02-19T19:31:23.163Z,100836.25
2023-02-19T19:34:28.755Z,100844.56
2023-02-19T19:37:32.562Z,100850.59
2023-02-19T19:40:38.397Z,100835.44
2023-02-19T19:43:40.949Z,100856.97
2023-02-19T19:46:46.160Z,100837.16
2023-02-19T19:49:48.523Z,100874.97
2023-02-19T19:52:51.807Z,100876.97
2023-02-19T19:55:55.003Z,100894.91
2023-02-19T19:58:59.360Z,100872.16
2023-02-19T20:02:05.448Z,100892.22
2023-02-19T20:05:16.998Z,100886.34
2023-02-19T20:08:19.763Z,100914.47
2023-02-19T20:11:23.050Z,100929.88
2023-02-19T20:14:26.737Z,100920.78
2023-02-19T20:17:30.531Z,100939.19
2023-02-19T20:20:33.571Z,100936.78
2023-02-19T20:23:42.305Z,100941.72
2023-02-19T20:26:45.650Z,100976.56
2023-02-19T20:29:49.386Z,101002.97
2023-02-19T20:32:52.035Z,100981.59
2023-02-19T20:35:57.139Z,101002.88
2023-02-19T20:39:00.052Z,101006.19
2023-02-19T20:42:03.174Z,100990.91
2023-02-19T20:45:06.446Z,101015.25
2023-02-19T20:48:09.119Z,101033.38
2023-02-19T20:51:12.036Z,101034.59
2023-02-19T20:54:17.777Z,101064.28
2023-02-19T20:57:20.213Z,101061.13
2023-02-19T21:00:26.672Z,101060.69
2023-02-19T21:03:30.579Z,101050.16
2023-02-19T21:06:33.555Z,101072.00
2023-02-19T21:09:36.844Z,101020.31
2023-02-19T21:12:39.755Z,101059.88
2023-02-19T21:15:42.521Z,101064.97
2023-02-19T21:18:45.306Z,101073.59
2023-02-19T21:21:48.003Z,101043.25
2023-02-19T21:24:53.321Z,101080.16
2023-02-19T21:27:56.257Z,101048.25
2023-02-19T21:30:59.426Z,101074.06
2023-02-19T21:34:04.984Z,101087.31
2023-02-19T21:37:08.073Z,101047.56
2023-02-19T21:40:12.790Z,101077.72
2023-02-19T21:43:20.171Z,101079.09
2023-02-19T21:46:26.886Z,101027.50
2023-02-19T21:49:30.368Z,101051.06
2023-02-19T21:52:33.453Z,101048.75
2023-02-19T21:55:38.619Z,101056.03
2023-02-19T21:58:46.800Z,101061.84
2023-02-19T22:01:50.859Z,101063.97
2023-02-19T22:04:56.474Z,101073.72
2023-02-19T22:08:00.414Z,101075.97
2023-02-19T22:11:07.069Z,101048.94
2023-02-19T22:14:12.927Z,101087.63
2023-02-19T22:17:16.124Z,101054.63
2023-02-19T22:20:22.705Z,101104.06
2023-02-19T22:23:26.070Z,101083.81
2023-02-19T22:26:36.035Z,101122.41
2023-02-19T22:30:06.992Z,101127.78
2023-02-19T22:33:10.522Z,101112.19
2023-02-19T22:36:19.874Z,101141.63
2023-02-19T22:39:27.615Z,101124.03
2023-02-19T22:42:30.801Z,101175.00
2023-02-19T22:45:33.915Z,101176.03
2023-02-19T22:48:36.607Z,101132.72
2023-02-19T22:51:39.397Z,101166.69
2023-02-19T22:54:41.982Z,101128.19
2023-02-19T22:57:44.620Z,101176.97
2023-02-19T23:00:49.765Z,101176.38
2023-02-19T23:04:01.547Z,101194.34
2023-02-19T23:07:06.519Z,101189.50
2023-02-19T23:10:09.713Z,101197.69
2023-02-19T23:13:12.390Z,101180.78
2023-02-19T23:16:15.353Z,101211.16
2023-02-19T23:19:18.243Z,101199.81
2023-02-19T23:22:21.302Z,101194.50
2023-02-19T23:25:27.979Z,101218.59
2023-02-19T23:28:31.136Z,101235.84
2023-02-19T23:31:34.096Z,101210.91
2023-02-19T23:34:36.787Z,101249.19
2023-02-19T23:37:40.037Z,101251.69
2023-02-19T23:40:43.610Z,101208.97
2023-02-19T23:43:46.070Z,101254.88
2023-02-19T23:46:49.268Z,101249.41
2023-02-19T23:49:52.356Z,101279.19
2023-02-19T23:52:57.544Z,101245.63
2023-02-19T23:56:00.226Z,101232.50
2023-02-19T23:59:06.376Z,101265.94
